createdAt,value
2023-05-09T00:01:22.908Z,22.60
2023-05-09T00:03:51.537Z,20.83
2023-05-09T00:06:19.536Z,22.00
2023-05-09T00:08:46.527Z,20.85
2023-05-09T00:11:13.353Z,21.35
2023-05-09T00:13:41.881Z,21.70
2023-05-09T00:16:09.340Z,20.38
2023-05-09T00:18:37.549Z,20.65
2023-05-09T00:21:04.614Z,21.10
2023-05-09T00:23:31.494Z,20.75
2023-05-09T00:25:59.440Z,21.02
2023-05-09T00:28:26.371Z,21.83
2023-05-09T00:30:53.868Z,21.35
2023-05-09T00:33:21.196Z,21.30
2023-05-09T00:35:48.034Z,20.00
2023-05-09T00:38:15.279Z,21.70
2023-05-09T00:40:42.142Z,20.02
2023-05-09T00:43:09.043Z,20.42
2023-05-09T00:45:35.992Z,19.80
2023-05-09T00:48:03.473Z,19.20
2023-05-09T00:50:31.144Z,18.02
2023-05-09T00:52:58.985Z,19.05
2023-05-09T00:55:27.252Z,18.48
2023-05-09T00:57:54.335Z,19.10
2023-05-09T01:00:21.594Z,19.65
2023-05-09T01:02:53.088Z,17.52
2023-05-09T01:05:20.625Z,18.65
2023-05-09T01:08:26.495Z,18.48
2023-05-09T01:10:56.597Z,16.80
2023-05-09T01:13:44.427Z,17.92
2023-05-09T01:16:23.852Z,18.13
2023-05-09T01:19:17.246Z,18.30
2023-05-09T01:21:47.735Z,16.67
2023-05-09T01:24:42.441Z,18.13
2023-05-09T01:27:33.718Z,17.67
2023-05-09T01:30:03.843Z,16.95
2023-05-09T01:32:32.327Z,17.35
2023-05-09T01:35:05.215Z,17.15
2023-05-09T01:37:35.640Z,16.30
2023-05-09T01:40:12.409Z,16.40
2023-05-09T01:42:58.886Z,17.58
2023-05-09T01:45:27.533Z,17.05
2023-05-09T01:47:55.922Z,17.90
2023-05-09T01:50:24.364Z,15.93
2023-05-09T01:52:55.040Z,17.05
2023-05-09T01:55:25.680Z,17.77
2023-05-09T01:57:54.018Z,16.40
2023-05-09T02:00:22.121Z,17.63
2023-05-09T02:02:49.946Z,16.88
2023-05-09T02:05:18.313Z,15.80
2023-05-09T02:07:47.550Z,17.17
2023-05-09T02:10:16.184Z,16.63
2023-05-09T02:12:43.572Z,17.73
2023-05-09T02:15:10.744Z,16.98
2023-05-09T02:17:42.235Z,17.73
2023-05-09T02:20:13.433Z,16.80
2023-05-09T02:22:42.084Z,16.42
2023-05-09T02:25:15.387Z,18.15
2023-05-09T02:27:45.393Z,18.52
2023-05-09T02:30:17.225Z,18.13
2023-05-09T02:32:47.253Z,18.77
2023-05-09T02:35:16.493Z,19.20
2023-05-09T02:37:45.404Z,18.70
2023-05-09T02:40:13.430Z,19.55
2023-05-09T02:42:40.512Z,18.75
2023-05-09T02:45:10.585Z,20.10
2023-05-09T02:47:38.310Z,19.83
2023-05-09T02:50:06.162Z,19.60
2023-05-09T02:52:34.769Z,20.27
2023-05-09T02:55:03.475Z,20.30
2023-05-09T02:57:32.238Z,20.73
2023-05-09T02:59:59.191Z,20.65
2023-05-09T03:02:26.836Z,19.77
2023-05-09T03:04:54.031Z,21.85
2023-05-09T03:07:21.235Z,21.20
2023-05-09T03:09:48.031Z,21.83
2023-05-09T03:12:14.986Z,22.55
2023-05-09T03:14:41.841Z,22.48
2023-05-09T03:17:08.993Z,22.30
2023-05-09T03:19:36.751Z,22.70
2023-05-09T03:22:03.772Z,22.17
2023-05-09T03:24:34.379Z,21.92
2023-05-09T03:27:02.586Z,22.17
2023-05-09T03:29:29.420Z,22.92
2023-05-09T03:31:56.362Z,22.55
2023-05-09T03:34:23.362Z,22.75
2023-05-09T03:36:50.294Z,22.67
2023-05-09T03:39:17.110Z,23.67
2023-05-09T03:41:47.278Z,23.60
2023-05-09T03:44:14.228Z,23.33
2023-05-09T03:46:41.025Z,23.05
2023-05-09T03:49:08.440Z,24.75
2023-05-09T03:51:36.866Z,23.27
2023-05-09T03:54:08.184Z,24.52
2023-05-09T03:56:35.985Z,23.17
2023-05-09T03:59:03.184Z,23.38
2023-05-09T04:01:32.214Z,23.38
2023-05-09T04:04:00.698Z,24.42
2023-05-09T04:06:30.828Z,24.02
2023-05-09T04:08:58.794Z,24.23
2023-05-09T04:11:25.979Z,23.65
2023-05-09T04:13:54.896Z,24.00
2023-05-09T04:16:31.897Z,24.58
2023-05-09T04:18:59.628Z,23.00
2023-05-09T04:21:26.826Z,23.67
2023-05-09T04:23:56.784Z,24.73
2023-05-09T04:26:31.828Z,22.92
2023-05-09T04:28:59.599Z,24.50
2023-05-09T04:31:26.660Z,24.10
2023-05-09T04:33:54.005Z,24.92
2023-05-09T04:36:23.197Z,24.30
2023-05-09T04:38:50.552Z,24.27
2023-05-09T04:41:23.062Z,24.10
2023-05-09T04:43:50.064Z,23.85
2023-05-09T04:46:17.011Z,24.85
2023-05-09T04:48:44.226Z,23.95
2023-05-09T04:51:11.224Z,23.95
2023-05-09T04:53:38.274Z,24.48
2023-05-09T04:56:06.577Z,23.40
2023-05-09T04:58:38.386Z,23.98
2023-05-09T05:01:09.419Z,23.45
2023-05-09T05:03:36.677Z,24.20
2023-05-09T05:06:04.635Z,22.13
2023-05-09T05:08:32.525Z,24.13
2023-05-09T05:10:59.564Z,25.17
2023-05-09T05:13:26.609Z,24.15
2023-05-09T05:15:59.105Z,24.65
2023-05-09T05:18:26.264Z,23.40
2023-05-09T05:20:53.893Z,24.10
2023-05-09T05:23:21.326Z,23.73
2023-05-09T05:25:52.132Z,23.08
2023-05-09T05:28:19.987Z,22.45
2023-05-09T05:30:47.601Z,22.88
2023-05-09T05:33:14.460Z,24.00
2023-05-09T05:35:41.578Z,22.25
2023-05-09T05:38:08.697Z,22.65
2023-05-09T05:40:36.081Z,22.83
2023-05-09T05:43:04.880Z,23.27
2023-05-09T05:45:33.624Z,21.35
2023-05-09T05:48:03.354Z,21.98
2023-05-09T05:50:31.810Z,21.42
2023-05-09T05:52:58.795Z,21.10
2023-05-09T05:55:25.717Z,20.52
2023-05-09T05:57:52.808Z,20.98
2023-05-09T06:00:20.861Z,19.58
2023-05-09T06:02:54.521Z,20.65
2023-05-09T06:05:29.582Z,19.98
2023-05-09T06:07:56.527Z,19.98
2023-05-09T06:10:23.323Z,19.83
2023-05-09T06:12:50.231Z,20.65
2023-05-09T06:15:18.169Z,20.40
2023-05-09T06:17:48.614Z,19.90
2023-05-09T06:20:15.553Z,20.88
2023-05-09T06:22:42.537Z,19.55
2023-05-09T06:25:10.615Z,21.13
2023-05-09T06:27:38.617Z,20.75
2023-05-09T06:30:23.924Z,20.00
2023-05-09T06:32:53.527Z,20.33
2023-05-09T06:35:20.950Z,20.10
2023-05-09T06:37:48.992Z,20.42
2023-05-09T06:40:17.392Z,21.52
2023-05-09T06:42:45.541Z,21.83
2023-05-09T06:45:13.065Z,21.27
2023-05-09T06:47:40.338Z,20.85
2023-05-09T06:50:08.016Z,22.17
2023-05-09T06:52:34.910Z,21.67
2023-05-09T06:55:01.903Z,21.50
2023-05-09T06:57:28.982Z,22.42
2023-05-09T06:59:55.783Z,23.63
2023-05-09T07:02:22.762Z,22.10
2023-05-09T07:04:49.686Z,22.13
2023-05-09T07:07:16.692Z,21.60
2023-05-09T07:09:43.808Z,22.98
2023-05-09T07:12:10.698Z,22.38
2023-05-09T07:14:37.674Z,24.42
2023-05-09T07:17:21.051Z,23.73
2023-05-09T07:19:49.476Z,23.85
2023-05-09T07:22:16.658Z,22.10
2023-05-09T07:24:46.563Z,22.98
2023-05-09T07:27:13.605Z,21.63
2023-05-09T07:29:40.466Z,23.23
2023-05-09T07:32:07.470Z,22.95
2023-05-09T07:34:34.499Z,19.58
2023-05-09T07:37:01.471Z,19.42
2023-05-09T07:39:28.279Z,19.65
2023-05-09T07:41:55.206Z,19.48
2023-05-09T07:44:22.369Z,19.15
2023-05-09T07:46:49.253Z,17.70
2023-05-09T07:49:16.108Z,17.05
2023-05-09T07:51:43.074Z,17.20
2023-05-09T07:54:10.311Z,17.20
2023-05-09T07:56:37.353Z,17.08
2023-05-09T07:59:04.251Z,16.38
2023-05-09T08:01:31.167Z,15.23
2023-05-09T08:03:58.318Z,14.70
2023-05-09T08:06:26.310Z,13.32
2023-05-09T08:08:53.139Z,13.45
2023-05-09T08:11:20.139Z,12.95
2023-05-09T08:13:48.211Z,12.43
2023-05-09T08:16:17.397Z,13.13
2023-05-09T08:18:44.596Z,12.25
2023-05-09T08:21:11.956Z,11.70
2023-05-09T08:23:38.789Z,11.70
2023-05-09T08:26:05.737Z,11.60
2023-05-09T08:28:32.628Z,10.93
2023-05-09T08:30:59.600Z,9.85
2023-05-09T08:33:26.642Z,10.10
2023-05-09T08:35:54.092Z,9.70
2023-05-09T08:38:21.288Z,9.60
2023-05-09T08:40:48.534Z,8.70
2023-05-09T08:43:19.688Z,8.57
2023-05-09T08:45:50.843Z,8.10
2023-05-09T08:48:18.616Z,8.13
2023-05-09T08:50:45.725Z,6.78
2023-05-09T08:53:13.544Z,6.75
2023-05-09T08:55:40.840Z,6.90
2023-05-09T08:58:09.297Z,6.60
2023-05-09T09:00:38.824Z,5.18
2023-05-09T09:03:07.529Z,5.85
2023-05-09T09:05:41.903Z,4.97
2023-05-09T09:08:11.012Z,5.53
2023-05-09T09:10:42.759Z,5.55
2023-05-09T09:13:12.562Z,4.90
2023-05-09T09:15:41.678Z,4.50
2023-05-09T09:18:12.397Z,4.25
2023-05-09T09:20:48.413Z,4.65
2023-05-09T09:23:19.740Z,4.15
2023-05-09T09:25:47.663Z,4.10
2023-05-09T09:28:15.171Z,4.40
2023-05-09T09:30:47.599Z,4.28
2023-05-09T09:33:21.963Z,3.85
2023-05-09T09:35:50.553Z,3.88
2023-05-09T09:38:21.622Z,3.88
2023-05-09T09:40:52.516Z,4.50
2023-05-09T09:43:19.619Z,3.92
2023-05-09T09:45:54.617Z,3.70
2023-05-09T09:48:33.635Z,3.90
2023-05-09T09:51:18.950Z,4.18
2023-05-09T09:53:46.846Z,4.00
2023-05-09T09:56:13.856Z,3.80
2023-05-09T09:58:40.809Z,4.13
2023-05-09T10:01:16.764Z,4.00
2023-05-09T10:03:48.114Z,4.00
2023-05-09T10:06:16.473Z,3.70
2023-05-09T10:08:49.364Z,3.65
2023-05-09T10:11:16.448Z,4.00
2023-05-09T10:13:44.486Z,3.40
2023-05-09T10:16:12.857Z,3.30
2023-05-09T10:18:43.021Z,3.42
2023-05-09T10:21:13.514Z,3.60
2023-05-09T10:23:46.311Z,3.70
2023-05-09T10:26:16.498Z,2.80
2023-05-09T10:28:46.524Z,3.33
2023-05-09T10:31:22.726Z,3.08
2023-05-09T10:33:50.974Z,3.40
2023-05-09T10:36:23.313Z,3.25
2023-05-09T10:38:54.887Z,3.03
2023-05-09T10:41:22.759Z,2.80
2023-05-09T10:43:49.789Z,3.08
2023-05-09T10:46:17.529Z,2.95
2023-05-09T10:48:45.098Z,3.15
2023-05-09T10:51:13.231Z,3.08
2023-05-09T10:53:44.705Z,2.78
2023-05-09T10:56:29.231Z,2.90
2023-05-09T10:58:56.521Z,3.47
2023-05-09T11:01:35.639Z,2.83
2023-05-09T11:04:10.634Z,2.80
2023-05-09T11:06:50.811Z,3.53
2023-05-09T11:09:28.260Z,3.42
2023-05-09T11:11:56.895Z,5.18
2023-05-09T11:14:33.889Z,5.97
2023-05-09T11:17:04.258Z,7.43
2023-05-09T11:19:59.160Z,7.95
2023-05-09T11:22:28.572Z,9.15
2023-05-09T11:25:13.335Z,10.07
2023-05-09T11:27:45.183Z,10.53
2023-05-09T11:30:16.859Z,10.20
2023-05-09T11:32:51.524Z,8.93
2023-05-09T11:35:20.853Z,10.23
2023-05-09T11:37:50.754Z,9.63
2023-05-09T11:40:19.601Z,9.70
2023-05-09T11:42:49.958Z,9.52
2023-05-09T11:45:18.305Z,10.93
2023-05-09T11:47:46.845Z,9.38
2023-05-09T11:50:14.978Z,8.88
2023-05-09T11:52:42.204Z,8.88
2023-05-09T11:55:13.902Z,9.32
2023-05-09T11:57:43.106Z,8.93
2023-05-09T12:00:10.735Z,8.57
2023-05-09T12:02:38.700Z,8.57
2023-05-09T12:05:13.973Z,8.40
2023-05-09T12:10:12.915Z,6.90
2023-05-09T12:12:48.656Z,7.25
2023-05-09T12:15:16.908Z,8.27
2023-05-09T12:17:46.795Z,8.43
2023-05-09T12:20:14.533Z,8.10
2023-05-09T12:22:44.028Z,9.98
2023-05-09T12:25:12.095Z,10.18
2023-05-09T12:27:40.548Z,9.45
2023-05-09T12:30:10.529Z,9.48
2023-05-09T12:32:39.666Z,9.55
2023-05-09T12:35:11.223Z,8.85
2023-05-09T12:37:38.856Z,9.20
2023-05-09T12:40:08.627Z,8.85
2023-05-09T12:42:36.153Z,8.55
2023-05-09T12:45:04.226Z,8.82
2023-05-09T12:47:32.431Z,8.60
2023-05-09T12:50:03.681Z,7.95
2023-05-09T12:52:58.458Z,8.10
2023-05-09T12:55:29.475Z,7.43
2023-05-09T12:58:01.352Z,8.27
2023-05-09T13:00:28.483Z,7.60
2023-05-09T13:02:55.929Z,9.15
2023-05-09T13:05:24.391Z,9.10
2023-05-09T13:07:52.786Z,9.90
2023-05-09T13:10:26.061Z,10.63
2023-05-09T13:12:53.498Z,10.23
2023-05-09T13:15:22.686Z,9.65
2023-05-09T13:17:51.907Z,9.85
2023-05-09T13:20:19.552Z,8.50
2023-05-09T13:22:47.393Z,8.50
2023-05-09T13:25:14.435Z,9.50
2023-05-09T13:27:41.394Z,9.63
2023-05-09T13:30:08.585Z,9.63
2023-05-09T13:32:36.613Z,9.25
2023-05-09T13:35:06.748Z,9.52
2023-05-09T13:37:37.086Z,8.85
2023-05-09T13:40:04.749Z,9.55
2023-05-09T13:42:34.204Z,8.70
2023-05-09T13:45:01.320Z,9.55
2023-05-09T13:47:28.169Z,9.18
2023-05-09T13:49:55.186Z,8.55
2023-05-09T13:52:22.266Z,8.98
2023-05-09T13:54:49.176Z,8.35
2023-05-09T13:57:16.002Z,9.10
2023-05-09T13:59:43.475Z,8.63
2023-05-09T14:02:13.179Z,9.13
2023-05-09T14:04:41.449Z,8.63
2023-05-09T14:07:11.143Z,8.35
2023-05-09T14:09:40.122Z,7.97
2023-05-09T14:12:07.251Z,8.80
2023-05-09T14:14:34.311Z,8.07
2023-05-09T14:17:01.459Z,7.85
2023-05-09T14:19:28.774Z,7.30
2023-05-09T14:21:55.895Z,8.02
2023-05-09T14:24:22.809Z,8.10
2023-05-09T14:26:49.616Z,8.02
2023-05-09T14:29:17.304Z,7.68
2023-05-09T14:31:44.132Z,8.13
2023-05-09T14:34:11.463Z,7.40
2023-05-09T14:36:38.335Z,7.53
2023-05-09T14:39:06.322Z,7.82
2023-05-09T14:41:33.168Z,7.35
2023-05-09T14:44:00.051Z,7.72
2023-05-09T14:46:27.094Z,7.40
2023-05-09T14:48:54.401Z,7.43
2023-05-09T14:51:21.932Z,7.15
2023-05-09T14:53:48.738Z,7.00
2023-05-09T14:56:15.595Z,7.22
2023-05-09T14:58:42.511Z,6.78
2023-05-09T15:01:09.404Z,7.15
2023-05-09T15:03:36.546Z,7.10
2023-05-09T15:06:03.524Z,7.53
2023-05-09T15:08:30.532Z,6.38
2023-05-09T15:10:57.834Z,7.70
2023-05-09T15:13:25.065Z,7.13
2023-05-09T15:15:52.000Z,7.10
2023-05-09T15:18:20.139Z,6.35
2023-05-09T15:20:47.136Z,7.10
2023-05-09T15:23:14.069Z,6.22
2023-05-09T15:25:42.177Z,6.20
2023-05-09T15:28:09.140Z,7.20
2023-05-09T15:30:38.379Z,6.05
2023-05-09T15:33:05.578Z,6.82
2023-05-09T15:35:32.553Z,5.90
2023-05-09T15:37:59.986Z,6.50
2023-05-09T15:40:27.911Z,6.38
2023-05-09T15:42:54.957Z,6.43
2023-05-09T15:45:21.787Z,6.78
2023-05-09T15:47:48.879Z,5.65
2023-05-09T15:50:16.221Z,5.15
2023-05-09T15:52:43.509Z,5.30
2023-05-09T15:55:10.849Z,5.30
2023-05-09T15:57:38.087Z,5.50
2023-05-09T16:00:05.600Z,6.00
2023-05-09T16:02:39.571Z,7.00
2023-05-09T16:05:06.796Z,6.45
2023-05-09T16:07:35.799Z,6.78
2023-05-09T16:10:03.243Z,6.93
2023-05-09T16:12:32.757Z,6.85
2023-05-09T16:15:00.114Z,6.72
2023-05-09T16:17:27.278Z,5.88
2023-05-09T16:19:54.851Z,6.13
2023-05-09T16:22:21.908Z,6.50
2023-05-09T16:24:49.231Z,5.53
2023-05-09T16:27:16.478Z,6.05
2023-05-09T16:29:43.706Z,5.70
2023-05-09T16:32:10.807Z,6.20
2023-05-09T16:34:37.958Z,5.60
2023-05-09T16:37:05.140Z,5.75
2023-05-09T16:39:32.516Z,5.47
2023-05-09T16:41:59.708Z,4.82
2023-05-09T16:44:26.998Z,3.95
2023-05-09T16:46:54.257Z,3.58
2023-05-09T16:49:21.440Z,3.53
2023-05-09T16:51:48.597Z,3.13
2023-05-09T16:54:15.761Z,2.90
2023-05-09T16:56:42.595Z,2.70
2023-05-09T16:59:09.530Z,2.75
2023-05-09T17:01:36.455Z,3.50
2023-05-09T17:04:06.573Z,2.95
2023-05-09T17:06:36.883Z,3.30
2023-05-09T17:09:03.938Z,3.50
2023-05-09T17:11:30.850Z,3.53
2023-05-09T17:13:57.744Z,3.55
2023-05-09T17:16:24.596Z,3.55
2023-05-09T17:18:52.078Z,3.92
2023-05-09T17:21:20.267Z,3.90
2023-05-09T17:23:47.251Z,3.90
2023-05-09T17:26:14.197Z,3.92
2023-05-09T17:28:41.181Z,3.72
2023-05-09T17:31:08.174Z,4.05
2023-05-09T17:33:35.116Z,3.72
2023-05-09T17:36:02.668Z,3.70
2023-05-09T17:38:30.103Z,4.03
2023-05-09T17:40:57.035Z,4.20
2023-05-09T17:43:24.171Z,4.50
2023-05-09T17:45:52.388Z,3.70
2023-05-09T17:48:19.381Z,2.75
2023-05-09T17:50:46.306Z,2.03
2023-05-09T17:53:13.893Z,2.83
2023-05-09T17:55:42.427Z,2.30
2023-05-09T17:58:09.481Z,2.33
2023-05-09T18:00:36.609Z,2.28
2023-05-09T18:03:04.154Z,2.13
2023-05-09T18:05:31.104Z,2.17
2023-05-09T18:08:00.844Z,2.58
2023-05-09T18:10:28.667Z,2.45
2023-05-09T18:12:56.166Z,2.85
2023-05-09T18:15:23.086Z,2.83
2023-05-09T18:17:50.315Z,2.83
2023-05-09T18:20:17.509Z,2.75
2023-05-09T18:23:03.615Z,3.13
2023-05-09T18:25:49.849Z,3.97
2023-05-09T18:28:40.845Z,3.15
2023-05-09T18:31:26.564Z,3.22
2023-05-09T18:34:12.255Z,3.38
2023-05-09T18:36:58.088Z,3.85
2023-05-09T18:39:43.816Z,3.83
2023-05-09T18:42:29.766Z,3.90
2023-05-09T18:45:15.809Z,4.95
2023-05-09T18:48:02.762Z,5.15
2023-05-09T18:50:52.213Z,4.82
2023-05-09T18:53:37.947Z,4.60
2023-05-09T18:56:23.157Z,4.75
2023-05-09T18:59:12.023Z,4.88
2023-05-09T19:01:57.818Z,4.90
2023-05-09T19:04:46.051Z,4.82
2023-05-09T19:07:31.743Z,5.00
2023-05-09T19:10:18.492Z,5.60
2023-05-09T19:13:06.079Z,6.18
2023-05-09T19:15:51.735Z,5.65
2023-05-09T19:18:37.213Z,5.70
2023-05-09T19:21:23.570Z,5.60
2023-05-09T19:24:09.414Z,6.47
2023-05-09T19:26:54.759Z,6.35
2023-05-09T19:29:40.288Z,5.80
2023-05-09T19:32:25.854Z,6.40
2023-05-09T19:35:11.490Z,6.28
2023-05-09T19:37:57.245Z,7.10
2023-05-09T19:40:42.470Z,7.22
2023-05-09T19:43:27.997Z,6.97
2023-05-09T19:46:13.654Z,7.32
2023-05-09T19:51:44.999Z,7.65
2023-05-09T19:54:31.316Z,7.82
2023-05-09T19:57:17.743Z,7.75
2023-05-09T20:00:03.295Z,7.95
2023-05-09T20:02:49.843Z,8.65
2023-05-09T20:05:35.735Z,8.32
2023-05-09T20:08:21.539Z,8.55
2023-05-09T20:13:53.615Z,9.45
2023-05-09T20:16:38.959Z,9.95
2023-05-09T20:19:24.403Z,9.48
2023-05-09T20:21:51.341Z,9.60
2023-05-09T20:24:18.154Z,9.63
2023-05-09T20:26:45.061Z,10.15
2023-05-09T20:29:11.925Z,10.32
2023-05-09T20:31:39.084Z,10.43
2023-05-09T20:34:05.985Z,11.18
2023-05-09T20:36:32.920Z,11.30
2023-05-09T20:38:59.713Z,11.15
2023-05-09T20:41:26.672Z,11.30
2023-05-09T20:43:53.547Z,11.57
2023-05-09T20:46:20.601Z,11.45
2023-05-09T20:48:48.471Z,10.20
2023-05-09T20:51:15.379Z,10.02
2023-05-09T20:53:42.157Z,8.73
2023-05-09T20:56:09.030Z,8.73
2023-05-09T20:58:35.958Z,7.80
2023-05-09T21:01:02.897Z,8.90
2023-05-09T21:03:29.789Z,10.07
2023-05-09T21:05:57.948Z,9.10
2023-05-09T21:08:25.731Z,9.48
2023-05-09T21:10:52.826Z,10.10
2023-05-09T21:13:19.782Z,9.18
2023-05-09T21:15:50.312Z,9.82
2023-05-09T21:18:17.428Z,9.05
2023-05-09T21:20:45.403Z,9.55
2023-05-09T21:23:12.400Z,10.27
2023-05-09T21:25:39.266Z,10.02
2023-05-09T21:28:06.218Z,10.40
2023-05-09T21:30:33.024Z,10.52
2023-05-09T21:33:00.043Z,11.73
2023-05-09T21:35:26.931Z,10.98
2023-05-09T21:37:53.796Z,12.45
2023-05-09T21:40:20.624Z,11.07
2023-05-09T21:42:47.954Z,11.60
2023-05-09T21:45:14.858Z,11.38
2023-05-09T21:47:41.825Z,10.82
2023-05-09T21:50:09.219Z,11.07
2023-05-09T21:52:36.115Z,11.40
2023-05-09T21:55:03.024Z,12.82
2023-05-09T21:57:30.012Z,13.20
2023-05-09T22:00:01.118Z,12.02
2023-05-09T22:02:31.766Z,12.45
2023-05-09T22:04:58.757Z,11.43
2023-05-09T22:07:25.663Z,10.85
2023-05-09T22:09:53.034Z,10.57
2023-05-09T22:12:19.883Z,10.75
2023-05-09T22:14:55.761Z,10.98
2023-05-09T22:17:24.522Z,10.60
2023-05-09T22:19:52.024Z,9.73
2023-05-09T22:22:19.233Z,10.90
2023-05-09T22:25:04.992Z,10.65
2023-05-09T22:27:50.291Z,10.25
2023-05-09T22:30:35.865Z,11.00
2023-05-09T22:33:21.241Z,8.85
2023-05-09T22:36:06.590Z,9.10
2023-05-09T22:38:51.978Z,10.27
2023-05-09T22:41:19.195Z,10.70
2023-05-09T22:43:46.281Z,10.00
2023-05-09T22:46:13.120Z,10.02
2023-05-09T22:48:40.148Z,10.75
2023-05-09T22:51:06.942Z,11.02
2023-05-09T22:53:33.809Z,11.65
2023-05-09T22:56:00.722Z,11.98
2023-05-09T22:58:27.616Z,12.43
2023-05-09T23:00:54.701Z,13.18
2023-05-09T23:03:22.109Z,14.18
2023-05-09T23:05:49.027Z,16.55
2023-05-09T23:08:16.150Z,17.08
2023-05-09T23:10:43.059Z,18.48
2023-05-09T23:13:10.106Z,19.45
2023-05-09T23:15:36.980Z,20.73
2023-05-09T23:18:04.399Z,20.23
2023-05-09T23:20:31.246Z,19.73
2023-05-09T23:22:58.331Z,20.58
2023-05-09T23:25:25.397Z,21.00
2023-05-09T23:27:52.561Z,22.85
2023-05-09T23:30:19.349Z,26.50
2023-05-09T23:32:46.410Z,25.35
2023-05-09T23:35:13.381Z,26.55
2023-05-09T23:37:40.308Z,26.13
2023-05-09T23:40:07.732Z,27.63
2023-05-09T23:42:34.613Z,28.10
2023-05-09T23:45:01.413Z,27.83
2023-05-09T23:47:28.363Z,27.40
2023-05-09T23:49:55.197Z,28.35
2023-05-09T23:52:22.133Z,26.98
2023-05-09T23:54:49.087Z,28.70
2023-05-09T23:57:15.903Z,29.13
2023-05-09T23:59:42.830Z,29.17
